createdAt,value
2018-04-11T00:00:44.485Z,0
2018-04-11T00:01:44.471Z,0
2018-04-11T00:02:44.447Z,0
2018-04-11T00:03:44.239Z,0
2018-04-11T00:04:44.408Z,0
2018-04-11T00:05:44.137Z,0
2018-04-11T00:06:44.112Z,0
2018-04-11T00:07:44.338Z,0
2018-04-11T00:08:44.065Z,0
2018-04-11T00:09:44.053Z,0
2018-04-11T00:10:44.135Z,0
2018-04-11T00:11:44.260Z,0
2018-04-11T00:12:43.996Z,0
2018-04-11T00:13:43.717Z,0
2018-04-11T00:14:44.198Z,0
2018-04-11T00:15:44.173Z,0
2018-04-11T00:16:44.157Z,0
2018-04-11T00:17:44.133Z,0
2018-04-11T00:18:44.111Z,0
2018-04-11T00:19:43.846Z,0
2018-04-11T00:20:43.570Z,0
2018-04-11T00:21:43.799Z,0
2018-04-11T00:22:44.034Z,0
2018-04-11T00:23:44.019Z,0
2018-04-11T00:24:43.992Z,0
2018-04-11T00:25:43.968Z,0
2018-04-11T00:26:43.448Z,0
2018-04-11T00:27:43.923Z,0
2018-04-11T00:28:43.906Z,0
2018-04-11T00:29:43.885Z,0
2018-04-11T00:30:43.614Z,0
2018-04-11T00:31:43.347Z,0
2018-04-11T00:32:43.566Z,0
2018-04-11T00:33:43.547Z,0
2018-04-11T00:34:43.769Z,0
2018-04-11T00:35:43.751Z,0
2018-04-11T00:36:43.484Z,0
2018-04-11T00:37:43.460Z,0
2018-04-11T00:38:43.434Z,0
2018-04-11T00:39:43.674Z,0
2018-04-11T00:40:43.654Z,0
2018-04-11T00:41:43.624Z,0
2018-04-11T00:42:43.360Z,0
2018-04-11T00:43:43.328Z,0
2018-04-11T00:44:43.566Z,0
2018-04-11T00:45:43.538Z,0
2018-04-11T00:46:43.272Z,0
2018-04-11T00:47:43.501Z,0
2018-04-11T00:48:43.480Z,0
2018-04-11T00:49:43.203Z,0
2018-04-11T00:50:42.939Z,0
2018-04-11T00:51:42.915Z,0
2018-04-11T00:52:43.390Z,0
2018-04-11T00:53:43.367Z,0
2018-04-11T00:54:43.091Z,0
2018-04-11T00:55:43.073Z,0
2018-04-11T00:56:43.415Z,0
2018-04-11T00:57:43.291Z,0
2018-04-11T00:58:43.042Z,0
2018-04-11T00:59:43.237Z,0
2018-04-11T01:00:43.219Z,0
2018-04-11T01:01:43.195Z,0
2018-04-11T01:02:43.181Z,0
2018-04-11T01:03:42.906Z,0
2018-04-11T01:04:42.884Z,0
2018-04-11T01:05:42.905Z,0
2018-04-11T01:06:42.593Z,0
2018-04-11T01:07:43.065Z,0
2018-04-11T01:08:43.045Z,0
2018-04-11T01:09:43.026Z,0
2018-04-11T01:10:42.763Z,0
2018-04-11T01:11:42.731Z,0
2018-04-11T01:12:42.961Z,0
2018-04-11T01:13:42.941Z,0
2018-04-11T01:14:42.669Z,0
2018-04-11T01:15:42.402Z,0
2018-04-11T01:16:42.923Z,0
2018-04-11T01:17:44.175Z,0
2018-04-11T01:18:42.830Z,0
2018-04-11T01:19:42.818Z,0
2018-04-11T01:20:42.545Z,0
2018-04-11T01:21:42.539Z,0
2018-04-11T01:22:42.747Z,0
2018-04-11T01:23:42.733Z,0
2018-04-11T01:24:42.218Z,0
2018-04-11T01:25:42.686Z,0
2018-04-11T01:26:42.677Z,0
2018-04-11T01:27:42.643Z,0
2018-04-11T01:28:42.381Z,0
2018-04-11T01:29:42.606Z,0
2018-04-11T01:30:42.614Z,0
2018-04-11T01:31:42.561Z,0
2018-04-11T01:32:42.294Z,0
2018-04-11T01:33:42.554Z,0
2018-04-11T01:34:42.492Z,0
2018-04-11T01:35:42.479Z,0
2018-04-11T01:36:42.211Z,0
2018-04-11T01:37:42.184Z,0
2018-04-11T01:38:42.170Z,0
2018-04-11T01:39:42.384Z,0
2018-04-11T01:40:42.365Z,0
2018-04-11T01:41:42.365Z,0
2018-04-11T01:42:42.080Z,0
2018-04-11T01:43:42.310Z,0
2018-04-11T01:44:42.276Z,0
2018-04-11T01:45:42.060Z,0
2018-04-11T01:46:41.995Z,0
2018-04-11T01:47:42.218Z,0
2018-04-11T01:48:42.202Z,0
2018-04-11T01:49:42.180Z,0
2018-04-11T01:50:42.157Z,0
2018-04-11T01:51:42.127Z,0
2018-04-11T01:52:42.108Z,0
2018-04-11T01:53:41.841Z,0
2018-04-11T01:54:42.080Z,0
2018-04-11T01:55:42.042Z,0
2018-04-11T01:56:41.787Z,0
2018-04-11T01:57:41.760Z,0
2018-04-11T01:58:41.990Z,0
2018-04-11T01:59:41.721Z,0
2018-04-11T02:00:41.843Z,0
2018-04-11T02:01:41.923Z,0
2018-04-11T02:02:41.902Z,0
2018-04-11T02:03:41.885Z,0
2018-04-11T02:04:41.613Z,0
2018-04-11T02:05:41.587Z,0
2018-04-11T02:06:41.574Z,0
2018-04-11T02:07:41.794Z,0
2018-04-11T02:08:41.775Z,0
2018-04-11T02:09:41.676Z,0
2018-04-11T02:10:41.734Z,0
2018-04-11T02:11:41.709Z,0
2018-04-11T02:12:41.698Z,0
2018-04-11T02:13:41.416Z,0
2018-04-11T02:14:41.151Z,0
2018-04-11T02:15:41.380Z,0
2018-04-11T02:16:41.350Z,0
2018-04-11T02:17:41.584Z,0
2018-04-11T02:18:41.557Z,0
2018-04-11T02:19:41.539Z,0
2018-04-11T02:20:41.267Z,0
2018-04-11T02:21:41.002Z,0
2018-04-11T02:22:41.277Z,0
2018-04-11T02:23:40.957Z,0
2018-04-11T02:24:41.437Z,0
2018-04-11T02:25:41.406Z,0
2018-04-11T02:26:41.140Z,0
2018-04-11T02:27:41.145Z,0
2018-04-11T02:28:41.346Z,0
2018-04-11T02:29:40.829Z,0
2018-04-11T02:30:40.804Z,0
2018-04-11T02:31:41.272Z,0
2018-04-11T02:32:41.026Z,0
2018-04-11T02:33:41.240Z,0
2018-04-11T02:34:40.967Z,0
2018-04-11T02:35:40.953Z,0
2018-04-11T02:36:40.939Z,0
2018-04-11T02:37:41.174Z,0
2018-04-11T02:38:41.134Z,0
2018-04-11T02:39:41.115Z,0
2018-04-11T02:40:41.089Z,0
2018-04-11T02:41:40.838Z,0
2018-04-11T02:42:41.055Z,0
2018-04-11T02:43:40.805Z,0
2018-04-11T02:44:40.512Z,0
2018-04-11T02:45:40.740Z,0
2018-04-11T02:46:40.969Z,0
2018-04-11T02:47:40.949Z,0
2018-04-11T02:48:40.933Z,0
2018-04-11T02:49:40.645Z,0
2018-04-11T02:50:40.880Z,0
2018-04-11T02:51:40.603Z,0
2018-04-11T02:52:40.578Z,0
2018-04-11T02:53:40.306Z,0
2018-04-11T02:54:40.796Z,0
2018-04-11T02:55:40.762Z,0
2018-04-11T02:56:40.794Z,0
2018-04-11T02:57:40.714Z,0
2018-04-11T02:58:40.451Z,0
2018-04-11T02:59:40.434Z,0
2018-04-11T03:00:40.408Z,0
2018-04-11T03:01:40.434Z,0
2018-04-11T03:02:40.114Z,0
2018-04-11T03:03:40.691Z,0
2018-04-11T03:04:40.562Z,0
2018-04-11T03:05:40.299Z,0
2018-04-11T03:06:40.813Z,0
2018-04-11T03:07:40.505Z,0
2018-04-11T03:08:40.227Z,0
2018-04-11T03:09:39.969Z,0
2018-04-11T03:10:39.966Z,0
2018-04-11T03:11:40.431Z,0
2018-04-11T03:12:40.393Z,0
2018-04-11T03:13:40.367Z,0
2018-04-11T03:14:40.386Z,0
2018-04-11T03:15:40.111Z,0
2018-04-11T03:16:40.314Z,0
2018-04-11T03:17:40.288Z,0
2018-04-11T03:18:39.762Z,0
2018-04-11T03:19:40.239Z,0
2018-04-11T03:20:40.211Z,0
2018-04-11T03:21:40.201Z,0
2018-04-11T03:22:40.210Z,0
2018-04-11T03:23:39.906Z,0
2018-04-11T03:24:39.631Z,0
2018-04-11T03:25:40.117Z,0
2018-04-11T03:26:39.840Z,0
2018-04-11T03:27:40.068Z,0
2018-04-11T03:28:39.789Z,0
2018-04-11T03:29:40.010Z,0
2018-04-11T03:30:40.009Z,0
2018-04-11T03:31:39.746Z,0
2018-04-11T03:32:39.963Z,0
2018-04-11T03:33:40.048Z,0
2018-04-11T03:34:39.915Z,0
2018-04-11T03:35:39.888Z,0
2018-04-11T03:36:39.865Z,0
2018-04-11T03:37:39.591Z,0
2018-04-11T03:38:39.825Z,0
2018-04-11T03:39:39.547Z,0
2018-04-11T03:40:39.774Z,0
2018-04-11T03:41:39.759Z,0
2018-04-11T03:42:39.729Z,0
2018-04-11T03:43:39.714Z,0
2018-04-11T03:44:39.457Z,0
2018-04-11T03:45:39.173Z,0
2018-04-11T03:46:39.147Z,0
2018-04-11T03:47:39.622Z,0
2018-04-11T03:48:39.353Z,0
2018-04-11T03:49:39.594Z,0
2018-04-11T03:50:39.323Z,0
2018-04-11T03:51:39.540Z,0
2018-04-11T03:52:39.564Z,0
2018-04-11T03:53:39.488Z,0
2018-04-11T03:54:38.970Z,0
2018-04-11T03:55:38.948Z,0
2018-04-11T03:56:39.427Z,0
2018-04-11T03:57:39.412Z,0
2018-04-11T03:58:39.376Z,0
2018-04-11T03:59:39.351Z,0
2018-04-11T04:00:39.095Z,0
2018-04-11T04:01:38.898Z,0
2018-04-11T04:02:39.295Z,0
2018-04-11T04:03:39.274Z,0
2018-04-11T04:04:39.236Z,0
2018-04-11T04:05:39.218Z,0
2018-04-11T04:06:38.954Z,0
2018-04-11T04:07:38.958Z,0
2018-04-11T04:08:39.157Z,0
2018-04-11T04:09:39.192Z,0
2018-04-11T04:10:39.115Z,0
2018-04-11T04:11:38.865Z,0
2018-04-11T04:12:39.079Z,0
2018-04-11T04:13:38.796Z,0
2018-04-11T04:14:39.299Z,0
2018-04-11T04:15:39.541Z,0
2018-04-11T04:16:38.968Z,0
2018-04-11T04:17:38.958Z,0
2018-04-11T04:18:38.934Z,0
2018-04-11T04:19:38.671Z,0
2018-04-11T04:20:38.899Z,0
2018-04-11T04:21:38.369Z,0
2018-04-11T04:22:38.844Z,0
2018-04-11T04:23:38.577Z,0
2018-04-11T04:24:38.811Z,0
2018-04-11T04:25:38.785Z,0
2018-04-11T04:26:38.762Z,0
2018-04-11T04:27:38.236Z,0
2018-04-11T04:28:38.466Z,0
2018-04-11T04:29:38.842Z,0
2018-04-11T04:30:38.672Z,0
2018-04-11T04:31:38.395Z,0
2018-04-11T04:32:38.370Z,0
2018-04-11T04:33:38.355Z,0
2018-04-11T04:34:38.327Z,0
2018-04-11T04:35:38.309Z,0
2018-04-11T04:36:38.041Z,0
2018-04-11T04:37:38.511Z,0
2018-04-11T04:38:38.497Z,0
2018-04-11T04:39:38.224Z,0
2018-04-11T04:40:38.469Z,0
2018-04-11T04:41:38.431Z,0
2018-04-11T04:42:38.413Z,0
2018-04-11T04:43:38.588Z,0
2018-04-11T04:44:38.483Z,0
2018-04-11T04:45:38.342Z,0
2018-04-11T04:46:38.332Z,5
2018-04-11T04:47:38.296Z,5
2018-04-11T04:48:38.331Z,5
2018-04-11T04:49:38.252Z,5
2018-04-11T04:50:38.245Z,5
2018-04-11T04:51:38.247Z,10
2018-04-11T04:52:37.930Z,10
2018-04-11T04:53:38.191Z,15
2018-04-11T04:54:38.145Z,15
2018-04-11T04:55:37.623Z,20
2018-04-11T04:56:37.604Z,20
2018-04-11T04:57:38.101Z,20
2018-04-11T04:58:38.051Z,25
2018-04-11T04:59:37.800Z,25
2018-04-11T05:00:38.016Z,20
2018-04-11T05:01:38.038Z,20
2018-04-11T05:02:37.973Z,20
2018-04-11T05:03:37.709Z,20
2018-04-11T05:04:37.777Z,15
2018-04-11T05:05:37.657Z,20
2018-04-11T05:06:37.888Z,20
2018-04-11T05:07:37.981Z,20
2018-04-11T05:08:37.588Z,25
2018-04-11T05:09:37.821Z,25
2018-04-11T05:10:37.802Z,30
2018-04-11T05:11:37.665Z,30
2018-04-11T05:12:37.751Z,30
2018-04-11T05:13:36.986Z,25
2018-04-11T05:14:38.713Z,25
2018-04-11T05:15:37.690Z,25
2018-04-11T05:16:37.673Z,30
2018-04-11T05:17:37.645Z,35
2018-04-11T05:18:37.124Z,35
2018-04-11T05:19:37.600Z,40
2018-04-11T05:20:37.578Z,40
2018-04-11T05:21:37.310Z,45
2018-04-11T05:22:37.299Z,50
2018-04-11T05:23:37.515Z,55
2018-04-11T05:24:37.498Z,60
2018-04-11T05:25:37.464Z,65
2018-04-11T05:26:37.206Z,70
2018-04-11T05:27:37.418Z,75
2018-04-11T05:28:37.157Z,80
2018-04-11T05:29:37.386Z,90
2018-04-11T05:30:37.377Z,90
2018-04-11T05:31:37.344Z,85
2018-04-11T05:32:37.310Z,85
2018-04-11T05:33:37.291Z,80
2018-04-11T05:34:37.271Z,80
2018-04-11T05:35:37.256Z,80
2018-04-11T05:36:37.238Z,80
2018-04-11T05:37:36.967Z,80
2018-04-11T05:38:36.938Z,80
2018-04-11T05:39:37.169Z,80
2018-04-11T05:40:37.146Z,80
2018-04-11T05:41:37.130Z,80
2018-04-11T05:42:37.152Z,80
2018-04-11T05:43:37.073Z,80
2018-04-11T05:44:36.810Z,80
2018-04-11T05:45:36.546Z,80
2018-04-11T05:46:37.016Z,80
2018-04-11T05:47:36.604Z,80
2018-04-11T05:48:36.729Z,75
2018-04-11T05:49:36.712Z,70
2018-04-11T05:50:37.871Z,65
2018-04-11T05:51:36.902Z,60
2018-04-11T05:52:36.892Z,55
2018-04-11T05:53:36.428Z,55
2018-04-11T05:54:36.589Z,55
2018-04-11T05:55:36.816Z,55
2018-04-11T05:56:36.803Z,60
2018-04-11T05:57:36.538Z,60
2018-04-11T05:58:36.261Z,65
2018-04-11T05:59:36.521Z,65
2018-04-11T06:00:36.714Z,65
2018-04-11T06:01:36.694Z,70
2018-04-11T06:02:36.672Z,70
2018-04-11T06:03:36.398Z,70
2018-04-11T06:04:36.382Z,70
2018-04-11T06:05:36.481Z,70
2018-04-11T06:06:36.589Z,70
2018-04-11T06:07:36.562Z,65
2018-04-11T06:08:36.549Z,60
2018-04-11T06:09:36.277Z,55
2018-04-11T06:10:36.256Z,55
2018-04-11T06:11:35.738Z,50
2018-04-11T06:12:35.710Z,50
2018-04-11T06:13:36.188Z,50
2018-04-11T06:14:35.916Z,55
2018-04-11T06:15:36.162Z,60
2018-04-11T06:16:36.386Z,60
2018-04-11T06:17:36.361Z,60
2018-04-11T06:18:36.331Z,65
2018-04-11T06:19:36.318Z,65
2018-04-11T06:20:36.296Z,65
2018-04-11T06:21:36.015Z,65
2018-04-11T06:22:35.751Z,65
2018-04-11T06:23:36.223Z,70
2018-04-11T06:24:35.954Z,75
2018-04-11T06:25:36.180Z,95
2018-04-11T06:26:35.664Z,110
2018-04-11T06:27:35.639Z,140
2018-04-11T06:28:35.928Z,170
2018-04-11T06:29:35.347Z,180
2018-04-11T06:30:36.076Z,195
2018-04-11T06:31:35.800Z,205
2018-04-11T06:32:35.787Z,215
2018-04-11T06:33:36.009Z,230
2018-04-11T06:34:35.749Z,230
2018-04-11T06:35:35.725Z,220
2018-04-11T06:36:35.696Z,210
2018-04-11T06:37:35.918Z,210
2018-04-11T06:38:35.409Z,210
2018-04-11T06:39:35.892Z,220
2018-04-11T06:40:35.615Z,230
2018-04-11T06:41:35.348Z,235
2018-04-11T06:42:35.570Z,245
2018-04-11T06:43:35.548Z,250
2018-04-11T06:44:35.542Z,270
2018-04-11T06:45:35.770Z,275
2018-04-11T06:46:35.731Z,270
2018-04-11T06:47:35.826Z,255
2018-04-11T06:48:35.195Z,240
2018-04-11T06:49:35.176Z,230
2018-04-11T06:50:35.659Z,225
2018-04-11T06:51:35.727Z,215
2018-04-11T06:52:35.621Z,210
2018-04-11T06:53:35.104Z,210
2018-04-11T06:54:35.324Z,220
2018-04-11T06:55:35.635Z,230
2018-04-11T06:56:35.535Z,230
2018-04-11T06:57:35.508Z,225
2018-04-11T06:58:35.492Z,215
2018-04-11T06:59:34.969Z,185
2018-04-11T07:00:35.451Z,155
2018-04-11T07:01:35.430Z,150
2018-04-11T07:02:35.160Z,165
2018-04-11T07:03:35.385Z,185
2018-04-11T07:04:35.115Z,205
2018-04-11T07:05:34.885Z,195
2018-04-11T07:06:35.079Z,185
2018-04-11T07:07:35.059Z,190
2018-04-11T07:08:35.288Z,215
2018-04-11T07:09:35.322Z,255
2018-04-11T07:10:35.012Z,290
2018-04-11T07:11:35.062Z,305
2018-04-11T07:12:34.811Z,315
2018-04-11T07:13:35.180Z,345
2018-04-11T07:14:34.914Z,385
2018-04-11T07:15:34.894Z,410
2018-04-11T07:16:34.866Z,410
2018-04-11T07:17:34.860Z,410
2018-04-11T07:18:34.830Z,420
2018-04-11T07:19:34.820Z,425
2018-04-11T07:20:34.788Z,420
2018-04-11T07:21:34.776Z,410
2018-04-11T07:22:34.791Z,400
2018-04-11T07:23:34.739Z,405
2018-04-11T07:24:34.970Z,405
2018-04-11T07:25:35.035Z,405
2018-04-11T07:26:36.316Z,420
2018-04-11T07:27:34.927Z,425
2018-04-11T07:28:34.881Z,415
2018-04-11T07:29:34.616Z,395
2018-04-11T07:30:34.591Z,380
2018-04-11T07:31:34.569Z,365
2018-04-11T07:32:34.568Z,355
2018-04-11T07:33:34.291Z,360
2018-04-11T07:34:34.528Z,380
2018-04-11T07:35:34.748Z,390
2018-04-11T07:36:34.723Z,390
2018-04-11T07:37:34.711Z,380
2018-04-11T07:38:34.697Z,370
2018-04-11T07:39:34.434Z,360
2018-04-11T07:40:34.794Z,345
2018-04-11T07:41:34.633Z,320
2018-04-11T07:42:34.635Z,305
2018-04-11T07:43:34.927Z,315
2018-04-11T07:44:35.142Z,330
2018-04-11T07:45:35.256Z,340
2018-04-11T07:46:34.333Z,350
2018-04-11T07:47:34.521Z,345
2018-04-11T07:48:34.516Z,335
2018-04-11T07:49:34.483Z,325
2018-04-11T07:50:33.972Z,330
2018-04-11T07:51:34.207Z,305
2018-04-11T07:52:34.427Z,275
2018-04-11T07:53:34.407Z,255
2018-04-11T07:54:34.067Z,245
2018-04-11T07:55:34.368Z,240
2018-04-11T07:56:34.350Z,230
2018-04-11T07:57:34.177Z,230
2018-04-11T07:58:34.324Z,255
2018-04-11T07:59:33.592Z,270
2018-04-11T08:00:34.027Z,295
2018-04-11T08:01:34.005Z,305
2018-04-11T08:02:34.403Z,310
2018-04-11T08:03:34.325Z,320
2018-04-11T08:04:34.207Z,335
2018-04-11T08:05:34.180Z,340
2018-04-11T08:06:34.149Z,355
2018-04-11T08:07:34.001Z,375
2018-04-11T08:08:33.627Z,365
2018-04-11T08:09:33.620Z,375
2018-04-11T08:10:33.833Z,450
2018-04-11T08:11:33.561Z,555
2018-04-11T08:12:34.567Z,640
2018-04-11T08:13:36.114Z,695
2018-04-11T08:14:35.339Z,750
2018-04-11T08:15:33.976Z,865
2018-04-11T08:16:33.467Z,950
2018-04-11T08:17:33.709Z,905
2018-04-11T08:18:33.922Z,900
2018-04-11T08:19:33.685Z,895
2018-04-11T08:20:33.730Z,880
2018-04-11T08:21:33.620Z,890
2018-04-11T08:22:33.599Z,895
2018-04-11T08:23:33.582Z,910
2018-04-11T08:24:33.816Z,915
2018-04-11T08:25:33.296Z,910
2018-04-11T08:26:33.774Z,895
2018-04-11T08:27:33.258Z,870
2018-04-11T08:28:33.490Z,860
2018-04-11T08:29:33.480Z,870
2018-04-11T08:30:32.960Z,830
2018-04-11T08:31:33.483Z,810
2018-04-11T08:32:33.678Z,785
2018-04-11T08:33:33.414Z,765
2018-04-11T08:34:36.089Z,805
2018-04-11T08:35:33.533Z,865
2018-04-11T08:36:33.615Z,890
2018-04-11T08:37:33.591Z,875
2018-04-11T08:38:33.065Z,885
2018-04-11T08:39:33.058Z,855
2018-04-11T08:40:33.290Z,850
2018-04-11T08:41:33.267Z,800
2018-04-11T08:42:33.261Z,775
2018-04-11T08:43:33.487Z,770
2018-04-11T08:44:32.980Z,830
2018-04-11T08:45:33.201Z,880
2018-04-11T08:46:33.438Z,905
2018-04-11T08:47:33.541Z,785
2018-04-11T08:48:33.158Z,660
2018-04-11T08:49:33.393Z,620
2018-04-11T08:50:32.871Z,675
2018-04-11T08:51:33.347Z,705
2018-04-11T08:52:33.464Z,690
2018-04-11T08:53:32.825Z,665
2018-04-11T08:54:33.058Z,725
2018-04-11T08:55:33.073Z,945
2018-04-11T08:56:33.024Z,1030
2018-04-11T08:57:32.761Z,1030
2018-04-11T08:58:33.244Z,1050
2018-04-11T08:59:32.976Z,1005
2018-04-11T09:00:33.216Z,955
2018-04-11T09:01:32.935Z,855
2018-04-11T09:02:32.932Z,760
2018-04-11T09:03:33.156Z,805
2018-04-11T09:04:32.907Z,980
2018-04-11T09:05:33.371Z,990
2018-04-11T09:06:33.107Z,910
2018-04-11T09:07:32.845Z,855
2018-04-11T09:08:32.829Z,820
2018-04-11T09:09:32.679Z,785
2018-04-11T09:10:32.799Z,780
2018-04-11T09:11:33.030Z,815
2018-04-11T09:12:32.523Z,815
2018-04-11T09:13:32.498Z,735
2018-04-11T09:14:32.240Z,630
2018-04-11T09:15:32.732Z,635
2018-04-11T09:16:32.459Z,720
2018-04-11T09:17:32.940Z,695
2018-04-11T09:18:32.182Z,535
2018-04-11T09:19:32.491Z,435
2018-04-11T09:20:32.395Z,380
2018-04-11T09:21:32.879Z,375
2018-04-11T09:22:32.608Z,430
2018-04-11T09:23:32.593Z,515
2018-04-11T09:24:32.829Z,625
2018-04-11T09:25:32.827Z,730
2018-04-11T09:26:32.302Z,770
2018-04-11T09:27:32.784Z,855
2018-04-11T09:28:32.764Z,975
2018-04-11T09:29:32.779Z,1005
2018-04-11T09:30:32.732Z,960
2018-04-11T09:31:32.213Z,895
2018-04-11T09:32:32.207Z,960
2018-04-11T09:33:31.939Z,1150
2018-04-11T09:34:32.171Z,1180
2018-04-11T09:35:32.654Z,1115
2018-04-11T09:36:32.142Z,1165
2018-04-11T09:37:32.627Z,1215
2018-04-11T09:38:32.108Z,1120
2018-04-11T09:39:34.388Z,1030
2018-04-11T09:40:32.336Z,1155
2018-04-11T09:41:32.071Z,1155
2018-04-11T09:42:32.306Z,1130
2018-04-11T09:43:32.531Z,1010
2018-04-11T09:44:32.514Z,885
2018-04-11T09:45:31.505Z,980
2018-04-11T09:46:32.493Z,915
2018-04-11T09:47:32.479Z,850
2018-04-11T09:48:32.471Z,690
2018-04-11T09:49:32.202Z,530
2018-04-11T09:50:31.926Z,480
2018-04-11T09:51:32.181Z,490
2018-04-11T09:52:31.902Z,480
2018-04-11T09:53:31.884Z,435
2018-04-11T09:54:31.868Z,435
2018-04-11T09:55:32.104Z,505
2018-04-11T09:56:31.837Z,580
2018-04-11T09:57:32.325Z,625
2018-04-11T09:58:32.052Z,630
2018-04-11T09:59:31.797Z,655
2018-04-11T10:00:32.443Z,680
2018-04-11T10:01:32.272Z,675
2018-04-11T10:02:31.988Z,635
2018-04-11T10:03:32.224Z,550
2018-04-11T10:04:31.974Z,460
2018-04-11T10:05:31.935Z,365
2018-04-11T10:06:31.923Z,305
2018-04-11T10:07:31.656Z,310
2018-04-11T10:08:31.890Z,335
2018-04-11T10:09:31.625Z,345
2018-04-11T10:10:31.866Z,325
2018-04-11T10:11:32.094Z,290
2018-04-11T10:12:32.134Z,260
2018-04-11T10:13:32.115Z,245
2018-04-11T10:14:32.068Z,245
2018-04-11T10:15:31.796Z,270
2018-04-11T10:16:32.508Z,310
2018-04-11T10:17:31.753Z,335
2018-04-11T10:18:31.981Z,345
2018-04-11T10:19:31.965Z,350
2018-04-11T10:20:31.940Z,375
2018-04-11T10:21:31.431Z,430
2018-04-11T10:22:31.650Z,480
2018-04-11T10:23:31.898Z,535
2018-04-11T10:24:31.652Z,555
2018-04-11T10:25:31.357Z,565
2018-04-11T10:26:31.339Z,575
2018-04-11T10:27:31.815Z,575
2018-04-11T10:28:31.299Z,570
2018-04-11T10:29:31.532Z,565
2018-04-11T10:30:31.528Z,580
2018-04-11T10:31:31.495Z,605
2018-04-11T10:32:31.731Z,615
2018-04-11T10:33:31.460Z,615
2018-04-11T10:34:31.730Z,635
2018-04-11T10:35:31.428Z,665
2018-04-11T10:36:31.669Z,695
2018-04-11T10:37:31.640Z,715
2018-04-11T10:38:31.626Z,725
2018-04-11T10:39:31.112Z,740
2018-04-11T10:40:31.592Z,760
2018-04-11T10:41:31.573Z,770
2018-04-11T10:42:31.058Z,765
2018-04-11T10:43:31.294Z,765
2018-04-11T10:44:31.271Z,775
2018-04-11T10:45:31.260Z,805
2018-04-11T10:46:31.124Z,835
2018-04-11T10:47:31.472Z,865
2018-04-11T10:48:31.461Z,880
2018-04-11T10:49:31.192Z,845
2018-04-11T10:50:31.439Z,780
2018-04-11T10:51:31.212Z,730
2018-04-11T10:52:31.150Z,695
2018-04-11T10:53:31.389Z,665
2018-04-11T10:54:31.116Z,645
2018-04-11T10:55:31.350Z,615
2018-04-11T10:56:30.838Z,590
2018-04-11T10:57:31.069Z,570
2018-04-11T10:58:31.299Z,570
2018-04-11T10:59:31.033Z,560
2018-04-11T11:00:31.016Z,560
2018-04-11T11:01:30.751Z,555
2018-04-11T11:02:30.990Z,545
2018-04-11T11:03:31.220Z,535
2018-04-11T11:04:30.963Z,525
2018-04-11T11:05:30.947Z,525
2018-04-11T11:06:31.174Z,525
2018-04-11T11:07:30.659Z,535
2018-04-11T11:08:30.887Z,550
2018-04-11T11:09:31.135Z,580
2018-04-11T11:10:30.858Z,610
2018-04-11T11:11:30.845Z,700
2018-04-11T11:12:30.832Z,805
2018-04-11T11:13:30.840Z,930
2018-04-11T11:14:31.078Z,1045
2018-04-11T11:15:30.529Z,1095
2018-04-11T11:16:30.301Z,1110
2018-04-11T11:17:30.501Z,1130
2018-04-11T11:18:30.476Z,1155
2018-04-11T11:19:31.387Z,1170
2018-04-11T11:20:30.443Z,1155
2018-04-11T11:21:30.422Z,1145
2018-04-11T11:22:30.788Z,1170
2018-04-11T11:23:30.646Z,1200
2018-04-11T11:24:30.638Z,1250
2018-04-11T11:25:30.371Z,1280
2018-04-11T11:26:30.852Z,1295
2018-04-11T11:27:30.847Z,1335
2018-04-11T11:28:30.328Z,1360
2018-04-11T11:29:30.559Z,1365
2018-04-11T11:30:30.046Z,1345
2018-04-11T11:31:30.544Z,1335
2018-04-11T11:32:30.781Z,1320
2018-04-11T11:33:30.494Z,1345
2018-04-11T11:34:30.505Z,1350
2018-04-11T11:35:30.731Z,1350
2018-04-11T11:36:30.925Z,1360
2018-04-11T11:37:30.444Z,1310
2018-04-11T11:38:30.192Z,1255
2018-04-11T11:39:30.660Z,1200
2018-04-11T11:40:30.448Z,1160
2018-04-11T11:41:30.401Z,1165
2018-04-11T11:42:30.127Z,1175
2018-04-11T11:43:30.612Z,1170
2018-04-11T11:44:29.858Z,1155
2018-04-11T11:45:30.605Z,1130
2018-04-11T11:46:30.324Z,1090
2018-04-11T11:47:30.315Z,1040
2018-04-11T11:48:30.549Z,975
2018-04-11T11:49:30.049Z,950
2018-04-11T11:50:30.278Z,950
2018-04-11T11:51:30.351Z,950
2018-04-11T11:52:30.284Z,945
2018-04-11T11:53:30.234Z,940
2018-04-11T11:54:30.215Z,945
2018-04-11T11:55:30.473Z,960
2018-04-11T11:56:29.941Z,935
2018-04-11T11:57:30.510Z,880
2018-04-11T11:58:29.921Z,840
2018-04-11T11:59:30.396Z,855
2018-04-11T12:00:30.388Z,930
2018-04-11T12:01:29.879Z,1000
2018-04-11T12:02:30.368Z,1045
2018-04-11T12:03:30.355Z,1090
2018-04-11T12:04:30.090Z,1120
2018-04-11T12:05:30.325Z,1150
2018-04-11T12:06:29.810Z,1165
2018-04-11T12:07:30.042Z,1190
2018-04-11T12:08:30.276Z,1170
2018-04-11T12:09:30.308Z,1105
2018-04-11T12:10:30.010Z,1045
2018-04-11T12:11:30.235Z,1015
2018-04-11T12:12:30.294Z,1005
2018-04-11T12:13:29.966Z,1000
2018-04-11T12:14:29.700Z,980
2018-04-11T12:15:29.942Z,1005
2018-04-11T12:16:29.938Z,1025
2018-04-11T12:17:30.170Z,1055
2018-04-11T12:18:29.649Z,1065
2018-04-11T12:19:30.256Z,960
2018-04-11T12:20:30.126Z,830
2018-04-11T12:21:30.107Z,705
2018-04-11T12:22:30.099Z,625
2018-04-11T12:23:29.849Z,625
2018-04-11T12:24:29.829Z,630
2018-04-11T12:25:30.074Z,610
2018-04-11T12:26:29.803Z,570
2018-04-11T12:27:29.785Z,530
2018-04-11T12:28:29.804Z,510
2018-04-11T12:29:29.855Z,505
2018-04-11T12:30:30.015Z,525
2018-04-11T12:31:29.232Z,575
2018-04-11T12:32:30.123Z,645
2018-04-11T12:33:29.957Z,670
2018-04-11T12:34:28.945Z,635
2018-04-11T12:35:29.921Z,600
2018-04-11T12:36:29.907Z,535
2018-04-11T12:37:30.105Z,480
2018-04-11T12:38:29.635Z,455
2018-04-11T12:39:29.879Z,445
2018-04-11T12:40:29.854Z,430
2018-04-11T12:41:29.368Z,420
2018-04-11T12:42:29.857Z,410
2018-04-11T12:43:29.810Z,395
2018-04-11T12:44:29.052Z,375
2018-04-11T12:45:29.775Z,360
2018-04-11T12:46:29.532Z,340
2018-04-11T12:47:29.494Z,330
2018-04-11T12:48:29.743Z,335
2018-04-11T12:49:29.471Z,350
2018-04-11T12:50:29.712Z,370
2018-04-11T12:51:29.691Z,380
2018-04-11T12:52:29.678Z,375
2018-04-11T12:53:29.420Z,360
2018-04-11T12:54:29.145Z,345
2018-04-11T12:55:29.383Z,330
2018-04-11T12:56:28.865Z,295
2018-04-11T12:57:29.599Z,280
2018-04-11T12:58:29.371Z,270
2018-04-11T12:59:29.569Z,270
2018-04-11T13:00:29.555Z,270
2018-04-11T13:01:29.535Z,280
2018-04-11T13:02:29.270Z,290
2018-04-11T13:03:29.009Z,290
2018-04-11T13:04:28.740Z,275
2018-04-11T13:05:29.494Z,265
2018-04-11T13:06:29.278Z,255
2018-04-11T13:07:29.450Z,260
2018-04-11T13:08:29.493Z,280
2018-04-11T13:09:28.909Z,300
2018-04-11T13:10:29.384Z,340
2018-04-11T13:11:28.884Z,355
2018-04-11T13:12:29.106Z,370
2018-04-11T13:13:29.355Z,370
2018-04-11T13:14:29.075Z,365
2018-04-11T13:15:29.069Z,360
2018-04-11T13:16:29.301Z,355
2018-04-11T13:17:29.281Z,355
2018-04-11T13:18:29.668Z,365
2018-04-11T13:19:28.994Z,390
2018-04-11T13:20:28.732Z,450
2018-04-11T13:21:28.955Z,510
2018-04-11T13:22:29.774Z,570
2018-04-11T13:23:28.679Z,625
2018-04-11T13:24:28.911Z,675
2018-04-11T13:25:28.658Z,720
2018-04-11T13:26:28.632Z,750
2018-04-11T13:27:29.104Z,745
2018-04-11T13:28:28.845Z,685
2018-04-11T13:29:28.330Z,600
2018-04-11T13:30:28.813Z,520
2018-04-11T13:31:28.550Z,465
2018-04-11T13:32:28.780Z,450
2018-04-11T13:33:29.016Z,475
2018-04-11T13:34:28.742Z,520
2018-04-11T13:35:28.984Z,565
2018-04-11T13:36:28.970Z,590
2018-04-11T13:37:28.456Z,580
2018-04-11T13:38:28.939Z,555
2018-04-11T13:39:28.425Z,535
2018-04-11T13:40:28.897Z,510
2018-04-11T13:41:28.148Z,480
2018-04-11T13:42:28.621Z,465
2018-04-11T13:43:28.362Z,430
2018-04-11T13:44:28.355Z,400
2018-04-11T13:45:28.576Z,370
2018-04-11T13:46:28.315Z,340
2018-04-11T13:47:28.547Z,325
2018-04-11T13:48:28.040Z,320
2018-04-11T13:49:28.759Z,335
2018-04-11T13:50:28.510Z,350
2018-04-11T13:51:28.235Z,365
2018-04-11T13:52:28.466Z,380
2018-04-11T13:53:28.465Z,390
2018-04-11T13:54:28.439Z,410
2018-04-11T13:55:28.418Z,430
2018-04-11T13:56:28.863Z,460
2018-04-11T13:57:28.636Z,515
2018-04-11T13:58:28.383Z,590
2018-04-11T13:59:28.117Z,695
2018-04-11T14:00:28.088Z,780
2018-04-11T14:01:28.145Z,825
2018-04-11T14:02:28.665Z,820
2018-04-11T14:03:28.436Z,795
2018-04-11T14:04:28.029Z,765
2018-04-11T14:05:28.260Z,745
2018-04-11T14:06:27.998Z,725
2018-04-11T14:07:27.976Z,680